sensor_id;sensor_type;location;lat;lon;timestamp;pressure;altitude;pressure_sealevel;temperature;humidity
6833;BME280;3454;42.654;23.378;2023-06-22T00:01:50;65055.69;;;19.74;93.04
6833;BME280;3454;42.654;23.378;2023-06-22T00:04:16;65052.38;;;19.71;94.09
6833;BME280;3454;42.654;23.378;2023-06-22T00:06:41;65040.56;;;19.58;94.29
6833;BME280;3454;42.654;23.378;2023-06-22T00:09:06;65028.28;;;19.52;93.70
6833;BME280;3454;42.654;23.378;2023-06-22T00:11:33;65022.78;;;19.47;94.07
6833;BME280;3454;42.654;23.378;2023-06-22T00:13:59;65013.94;;;19.39;94.96
6833;BME280;3454;42.654;23.378;2023-06-22T00:16:24;65004.53;;;19.30;96.43
6833;BME280;3454;42.654;23.378;2023-06-22T00:18:50;65001.91;;;19.23;96.44
6833;BME280;3454;42.654;23.378;2023-06-22T00:21:15;64996.78;;;19.23;96.68
6833;BME280;3454;42.654;23.378;2023-06-22T00:23:41;64991.28;;;19.18;96.85
6833;BME280;3454;42.654;23.378;2023-06-22T00:26:07;64985.56;;;19.10;97.27
6833;BME280;3454;42.654;23.378;2023-06-22T00:28:34;64990.50;;;19.15;97.79
6833;BME280;3454;42.654;23.378;2023-06-22T00:31:00;65010.44;;;19.33;96.57
6833;BME280;3454;42.654;23.378;2023-06-22T00:33:26;65019.78;;;19.42;96.87
6833;BME280;3454;42.654;23.378;2023-06-22T00:35:53;65008.19;;;19.31;97.32
6833;BME280;3454;42.654;23.378;2023-06-22T00:38:19;65016.28;;;19.36;97.14
6833;BME280;3454;42.654;23.378;2023-06-22T00:40:45;65009.84;;;19.33;96.79
6833;BME280;3454;42.654;23.378;2023-06-22T00:43:11;65015.19;;;19.35;97.48
6833;BME280;3454;42.654;23.378;2023-06-22T00:45:36;65012.63;;;19.35;97.44
6833;BME280;3454;42.654;23.378;2023-06-22T00:48:02;65000.13;;;19.26;97.13
6833;BME280;3454;42.654;23.378;2023-06-22T00:50:32;65016.28;;;19.36;96.47
6833;BME280;3454;42.654;23.378;2023-06-22T00:53:07;64999.16;;;19.20;96.89
6833;BME280;3454;42.654;23.378;2023-06-22T00:55:37;64997.50;;;19.19;95.16
6833;BME280;3454;42.654;23.378;2023-06-22T00:58:05;64986.09;;;19.11;95.80
6833;BME280;3454;42.654;23.378;2023-06-22T01:00:35;64989.00;;;19.09;96.83
6833;BME280;3454;42.654;23.378;2023-06-22T01:03:01;64972.84;;;18.99;98.01
6833;BME280;3454;42.654;23.378;2023-06-22T01:05:27;64973.06;;;19.01;99.29
6833;BME280;3454;42.654;23.378;2023-06-22T01:08:29;64980.59;;;19.06;99.40
6833;BME280;3454;42.654;23.378;2023-06-22T01:14:23;64979.13;;;19.07;99.51
6833;BME280;3454;42.654;23.378;2023-06-22T01:16:51;64990.50;;;19.15;99.07
6833;BME280;3454;42.654;23.378;2023-06-22T01:19:49;64993.84;;;19.18;99.41
6833;BME280;3454;42.654;23.378;2023-06-22T01:22:24;64977.81;;;19.03;100.00
6833;BME280;3454;42.654;23.378;2023-06-22T01:25:13;64975.97;;;18.99;100.00
6833;BME280;3454;42.654;23.378;2023-06-22T01:30:16;64990.16;;;19.17;100.00
6833;BME280;3454;42.654;23.378;2023-06-22T01:32:44;64992.72;;;19.17;100.00
6833;BME280;3454;42.654;23.378;2023-06-22T01:35:10;64983.53;;;19.11;100.00
6833;BME280;3454;42.654;23.378;2023-06-22T01:37:37;64993.84;;;19.18;100.00
6833;BME280;3454;42.654;23.378;2023-06-22T01:40:07;64999.56;;;19.25;100.00
6833;BME280;3454;42.654;23.378;2023-06-22T01:42:34;65003.22;;;19.26;100.00
6833;BME280;3454;42.654;23.378;2023-06-22T01:45:01;64999.91;;;19.23;100.00
6833;BME280;3454;42.654;23.378;2023-06-22T01:47:27;64997.13;;;19.21;100.00
6833;BME280;3454;42.654;23.378;2023-06-22T01:49:53;64987.97;;;19.15;100.00
6833;BME280;3454;42.654;23.378;2023-06-22T01:52:19;64994.75;;;19.16;100.00
6833;BME280;3454;42.654;23.378;2023-06-22T01:54:47;64986.88;;;19.14;100.00
6833;BME280;3454;42.654;23.378;2023-06-22T01:57:13;64990.88;;;19.13;100.00
6833;BME280;3454;42.654;23.378;2023-06-22T02:02:20;64991.63;;;19.16;100.00
6833;BME280;3454;42.654;23.378;2023-06-22T02:04:57;64977.28;;;19.03;100.00
6833;BME280;3454;42.654;23.378;2023-06-22T02:07:29;64965.88;;;18.95;100.00
6833;BME280;3454;42.654;23.378;2023-06-22T02:09:58;64968.25;;;18.92;100.00
6833;BME280;3454;42.654;23.378;2023-06-22T02:12:25;64981.91;;;19.09;100.00
6833;BME280;3454;42.654;23.378;2023-06-22T02:14:53;64991.63;;;19.16;100.00
6833;BME280;3454;42.654;23.378;2023-06-22T02:17:19;64989.41;;;19.14;100.00
6833;BME280;3454;42.654;23.378;2023-06-22T02:19:45;64994.19;;;19.16;100.00
6833;BME280;3454;42.654;23.378;2023-06-22T02:22:10;64977.63;;;19.01;100.00
6833;BME280;3454;42.654;23.378;2023-06-22T02:24:38;64975.06;;;19.01;100.00
6833;BME280;3454;42.654;23.378;2023-06-22T02:27:04;64943.81;;;18.75;100.00
6833;BME280;3454;42.654;23.378;2023-06-22T02:29:32;64950.59;;;18.76;100.00
6833;BME280;3454;42.654;23.378;2023-06-22T02:31:57;64955.41;;;18.85;100.00
6833;BME280;3454;42.654;23.378;2023-06-22T02:34:23;64966.44;;;18.95;100.00
6833;BME280;3454;42.654;23.378;2023-06-22T02:36:49;64965.88;;;18.95;100.00
6833;BME280;3454;42.654;23.378;2023-06-22T02:39:22;64961.81;;;18.89;100.00
6833;BME280;3454;42.654;23.378;2023-06-22T02:41:52;64965.16;;;18.92;100.00
6833;BME280;3454;42.654;23.378;2023-06-22T02:44:18;64960.53;;;18.85;100.00
6833;BME280;3454;42.654;23.378;2023-06-22T02:46:45;64949.69;;;18.78;100.00
6833;BME280;3454;42.654;23.378;2023-06-22T02:49:10;64936.47;;;18.66;100.00
6833;BME280;3454;42.654;23.378;2023-06-22T02:51:38;64948.94;;;18.75;100.00
6833;BME280;3454;42.654;23.378;2023-06-22T02:54:07;64941.97;;;18.71;100.00
6833;BME280;3454;42.654;23.378;2023-06-22T02:56:33;64944.72;;;18.73;100.00
6833;BME280;3454;42.654;23.378;2023-06-22T02:58:58;64935.16;;;18.62;100.00
6833;BME280;3454;42.654;23.378;2023-06-22T03:01:27;64927.28;;;18.60;100.00
6833;BME280;3454;42.654;23.378;2023-06-22T03:03:55;64951.13;;;18.77;100.00
6833;BME280;3454;42.654;23.378;2023-06-22T03:06:21;64954.47;;;18.80;100.00
6833;BME280;3454;42.654;23.378;2023-06-22T03:08:58;64960.16;;;18.87;100.00
6833;BME280;3454;42.654;23.378;2023-06-22T03:11:23;64978.94;;;19.04;100.00
6833;BME280;3454;42.654;23.378;2023-06-22T03:13:49;64965.34;;;18.94;100.00
6833;BME280;3454;42.654;23.378;2023-06-22T03:16:14;64961.47;;;18.91;100.00
6833;BME280;3454;42.654;23.378;2023-06-22T03:18:39;64962.94;;;18.90;100.00
6833;BME280;3454;42.654;23.378;2023-06-22T03:21:05;64962.94;;;18.90;100.00
6833;BME280;3454;42.654;23.378;2023-06-22T03:23:30;64968.78;;;18.93;100.00
6833;BME280;3454;42.654;23.378;2023-06-22T03:25:56;64957.97;;;18.85;100.00
6833;BME280;3454;42.654;23.378;2023-06-22T03:28:21;64959.28;;;18.89;100.00
6833;BME280;3454;42.654;23.378;2023-06-22T03:30:47;64964.03;;;18.91;100.00
6833;BME280;3454;42.654;23.378;2023-06-22T03:33:12;64985.00;;;19.10;100.00
6833;BME280;3454;42.654;23.378;2023-06-22T03:35:38;64994.19;;;19.16;100.00
6833;BME280;3454;42.654;23.378;2023-06-22T03:38:03;64986.66;;;19.11;100.00
6833;BME280;3454;42.654;23.378;2023-06-22T03:40:29;64980.94;;;19.04;100.00
6833;BME280;3454;42.654;23.378;2023-06-22T03:42:55;64973.97;;;19.00;100.00
6833;BME280;3454;42.654;23.378;2023-06-22T03:45:20;64957.41;;;18.85;100.00
6833;BME280;3454;42.654;23.378;2023-06-22T03:47:46;64953.00;;;18.81;100.00
6833;BME280;3454;42.654;23.378;2023-06-22T03:50:11;64949.13;;;18.77;100.00
6833;BME280;3454;42.654;23.378;2023-06-22T03:52:37;64951.91;;;18.80;100.00
6833;BME280;3454;42.654;23.378;2023-06-22T03:55:03;64965.16;;;18.92;100.00
6833;BME280;3454;42.654;23.378;2023-06-22T03:57:28;64959.28;;;18.89;100.00
6833;BME280;3454;42.654;23.378;2023-06-22T03:59:56;64943.44;;;18.70;100.00
6833;BME280;3454;42.654;23.378;2023-06-22T04:02:23;64916.25;;;18.50;100.00
6833;BME280;3454;42.654;23.378;2023-06-22T04:04:48;64909.97;;;18.41;100.00
6833;BME280;3454;42.654;23.378;2023-06-22T04:07:14;64933.69;;;18.63;100.00
6833;BME280;3454;42.654;23.378;2023-06-22T04:09:39;64942.72;;;18.74;100.00
6833;BME280;3454;42.654;23.378;2023-06-22T04:12:05;64935.34;;;18.65;100.00
6833;BME280;3454;42.654;23.378;2023-06-22T04:14:30;64921.91;;;18.50;100.00
6833;BME280;3454;42.654;23.378;2023-06-22T04:16:57;64909.97;;;18.41;100.00
6833;BME280;3454;42.654;23.378;2023-06-22T04:19:22;64908.84;;;18.40;100.00
6833;BME280;3454;42.654;23.378;2023-06-22T04:21:48;64907.41;;;18.41;100.00
6833;BME280;3454;42.654;23.378;2023-06-22T04:24:14;64934.25;;;18.64;100.00
6833;BME280;3454;42.654;23.378;2023-06-22T04:26:47;64970.84;;;18.99;100.00
6833;BME280;3454;42.654;23.378;2023-06-22T04:29:13;64986.44;;;19.09;100.00
6833;BME280;3454;42.654;23.378;2023-06-22T04:31:39;64989.41;;;19.14;100.00
6833;BME280;3454;42.654;23.378;2023-06-22T04:34:06;65008.41;;;19.34;100.00
6833;BME280;3454;42.654;23.378;2023-06-22T04:36:41;65018.69;;;19.41;100.00
6833;BME280;3454;42.654;23.378;2023-06-22T04:39:08;65021.47;;;19.43;100.00
6833;BME280;3454;42.654;23.378;2023-06-22T04:41:35;65031.59;;;19.55;100.00
6833;BME280;3454;42.654;23.378;2023-06-22T04:44:17;65025.13;;;19.44;100.00
6833;BME280;3454;42.654;23.378;2023-06-22T04:46:56;65036.56;;;19.59;100.00
6833;BME280;3454;42.654;23.378;2023-06-22T04:49:34;65038.03;;;19.58;100.00
6833;BME280;3454;42.654;23.378;2023-06-22T04:52:08;65036.94;;;19.57;100.00
6833;BME280;3454;42.654;23.378;2023-06-22T04:54:35;65022.22;;;19.46;100.00
6833;BME280;3454;42.654;23.378;2023-06-22T04:57:02;65023.31;;;19.47;100.00
6833;BME280;3454;42.654;23.378;2023-06-22T04:59:29;65038.56;;;19.59;100.00
6833;BME280;3454;42.654;23.378;2023-06-22T05:02:02;65116.81;;;20.28;100.00
6833;BME280;3454;42.654;23.378;2023-06-22T05:04:29;65121.97;;;20.35;100.00
6833;BME280;3454;42.654;23.378;2023-06-22T05:06:56;65124.19;;;20.37;100.00
6833;BME280;3454;42.654;23.378;2023-06-22T05:09:22;65150.72;;;20.61;100.00
6833;BME280;3454;42.654;23.378;2023-06-22T05:11:49;65135.25;;;20.47;100.00
6833;BME280;3454;42.654;23.378;2023-06-22T05:14:14;65113.91;;;20.30;100.00
6833;BME280;3454;42.654;23.378;2023-06-22T05:16:44;65089.38;;;20.05;100.00
6833;BME280;3454;42.654;23.378;2023-06-22T05:19:10;65078.88;;;19.95;100.00
6833;BME280;3454;42.654;23.378;2023-06-22T05:21:35;65082.75;;;19.99;100.00
6833;BME280;3454;42.654;23.378;2023-06-22T05:24:01;65128.63;;;20.41;100.00
6833;BME280;3454;42.654;23.378;2023-06-22T05:26:29;65184.09;;;20.93;100.00
6833;BME280;3454;42.654;23.378;2023-06-22T05:28:54;65207.69;;;21.13;100.00
6833;BME280;3454;42.654;23.378;2023-06-22T05:31:20;65215.97;;;21.20;100.00
6833;BME280;3454;42.654;23.378;2023-06-22T05:33:47;65220.41;;;21.24;100.00
6833;BME280;3454;42.654;23.378;2023-06-22T05:36:12;65208.97;;;21.16;98.71
6833;BME280;3454;42.654;23.378;2023-06-22T05:38:39;65212.66;;;21.17;95.96
6833;BME280;3454;42.654;23.378;2023-06-22T05:41:05;65242.50;;;21.44;99.19
6833;BME280;3454;42.654;23.378;2023-06-22T05:43:31;65258.75;;;21.61;98.23
6833;BME280;3454;42.654;23.378;2023-06-22T05:45:56;65263.53;;;21.63;95.80
6833;BME280;3454;42.654;23.378;2023-06-22T05:48:22;65263.72;;;21.66;96.04
6833;BME280;3454;42.654;23.378;2023-06-22T05:50:48;65280.13;;;21.79;98.95
6833;BME280;3454;42.654;23.378;2023-06-22T05:53:13;65276.44;;;21.77;99.54
6833;BME280;3454;42.654;23.378;2023-06-22T05:55:39;65317.78;;;22.13;96.97
6833;BME280;3454;42.654;23.378;2023-06-22T05:58:04;65330.69;;;22.27;96.17
6833;BME280;3454;42.654;23.378;2023-06-22T06:00:30;65326.81;;;22.23;96.32
6833;BME280;3454;42.654;23.378;2023-06-22T06:02:56;65327.94;;;22.24;91.80
6833;BME280;3454;42.654;23.378;2023-06-22T06:05:21;65296.94;;;21.96;93.67
6833;BME280;3454;42.654;23.378;2023-06-22T06:07:48;65293.78;;;21.89;98.14
6833;BME280;3454;42.654;23.378;2023-06-22T06:10:13;65290.66;;;21.88;99.15
6833;BME280;3454;42.654;23.378;2023-06-22T06:12:39;65307.66;;;22.08;100.00
6833;BME280;3454;42.654;23.378;2023-06-22T06:15:04;65323.50;;;22.20;95.76
6833;BME280;3454;42.654;23.378;2023-06-22T06:17:30;65331.81;;;22.28;96.37
6833;BME280;3454;42.654;23.378;2023-06-22T06:19:55;65363.69;;;22.54;95.33
6833;BME280;3454;42.654;23.378;2023-06-22T06:22:21;65350.81;;;22.47;91.73
6833;BME280;3454;42.654;23.378;2023-06-22T06:24:49;65363.91;;;22.57;96.30
6833;BME280;3454;42.654;23.378;2023-06-22T06:27:15;65395.84;;;22.84;97.61
6833;BME280;3454;42.654;23.378;2023-06-22T06:29:40;65389.94;;;22.81;93.38
6833;BME280;3454;42.654;23.378;2023-06-22T06:32:06;65405.66;;;22.97;96.66
6833;BME280;3454;42.654;23.378;2023-06-22T06:34:31;65419.84;;;23.08;96.72
6833;BME280;3454;42.654;23.378;2023-06-22T06:36:57;65442.56;;;23.28;90.01
6833;BME280;3454;42.654;23.378;2023-06-22T06:39:22;65454.22;;;23.39;89.09
6833;BME280;3454;42.654;23.378;2023-06-22T06:41:48;65471.41;;;23.55;88.78
6833;BME280;3454;42.654;23.378;2023-06-22T06:44:13;65468.06;;;23.52;87.07
6833;BME280;3454;42.654;23.378;2023-06-22T06:46:39;65475.84;;;23.59;79.94
6833;BME280;3454;42.654;23.378;2023-06-22T06:49:04;65461.41;;;23.46;79.38
6833;BME280;3454;42.654;23.378;2023-06-22T06:51:29;65426.50;;;23.14;81.33
6833;BME280;3454;42.654;23.378;2023-06-22T06:53:55;65417.09;;;23.05;83.24
6833;BME280;3454;42.654;23.378;2023-06-22T06:56:20;65419.66;;;23.05;83.57
6833;BME280;3454;42.654;23.378;2023-06-22T06:58:46;65437.22;;;23.26;89.74
6833;BME280;3454;42.654;23.378;2023-06-22T07:01:14;65461.97;;;23.46;84.69
6833;BME280;3454;42.654;23.378;2023-06-22T07:03:40;65452.91;;;23.35;85.79
6833;BME280;3454;42.654;23.378;2023-06-22T07:06:05;65442.56;;;23.28;87.32
6833;BME280;3454;42.654;23.378;2023-06-22T07:08:30;65454.78;;;23.40;85.29
6833;BME280;3454;42.654;23.378;2023-06-22T07:10:56;65449.25;;;23.34;89.66
6833;BME280;3454;42.654;23.378;2023-06-22T07:13:21;65483.56;;;23.66;89.60
6833;BME280;3454;42.654;23.378;2023-06-22T07:15:47;65492.25;;;23.71;88.54
6833;BME280;3454;42.654;23.378;2023-06-22T07:18:12;65512.41;;;23.92;89.57
6833;BME280;3454;42.654;23.378;2023-06-22T07:20:38;65520.91;;;24.02;86.97
6833;BME280;3454;42.654;23.378;2023-06-22T07:23:05;65547.34;;;24.24;86.27
6833;BME280;3454;42.654;23.378;2023-06-22T07:25:30;65553.44;;;24.29;84.25
6833;BME280;3454;42.654;23.378;2023-06-22T07:28:02;65573.41;;;24.47;85.62
6833;BME280;3454;42.654;23.378;2023-06-22T07:30:29;65586.16;;;24.59;83.98
6833;BME280;3454;42.654;23.378;2023-06-22T07:32:55;65580.81;;;24.56;81.22
6833;BME280;3454;42.654;23.378;2023-06-22T07:35:20;65586.91;;;24.62;82.45
6833;BME280;3454;42.654;23.378;2023-06-22T07:37:45;65593.38;;;24.65;81.74
6833;BME280;3454;42.654;23.378;2023-06-22T07:40:11;65587.47;;;24.62;82.38
6833;BME280;3454;42.654;23.378;2023-06-22T07:42:37;65597.81;;;24.69;82.20
6833;BME280;3454;42.654;23.378;2023-06-22T07:45:03;65604.47;;;24.75;80.76
6833;BME280;3454;42.654;23.378;2023-06-22T07:47:29;65619.47;;;24.89;80.91
6833;BME280;3454;42.654;23.378;2023-06-22T07:49:55;65620.41;;;24.94;79.63
6833;BME280;3454;42.654;23.378;2023-06-22T07:52:23;65640.00;;;25.08;80.99
6833;BME280;3454;42.654;23.378;2023-06-22T07:54:50;65637.97;;;25.08;76.96
6833;BME280;3454;42.654;23.378;2023-06-22T07:57:15;65658.31;;;25.24;78.87
6833;BME280;3454;42.654;23.378;2023-06-22T07:59:41;65640.53;;;25.08;76.75
6833;BME280;3454;42.654;23.378;2023-06-22T08:02:06;65664.97;;;25.30;79.51
6833;BME280;3454;42.654;23.378;2023-06-22T08:04:33;65659.97;;;25.26;74.63
6833;BME280;3454;42.654;23.378;2023-06-22T08:07:00;65666.06;;;25.31;74.59
6833;BME280;3454;42.654;23.378;2023-06-22T08:09:28;65671.06;;;25.36;71.08
6833;BME280;3454;42.654;23.378;2023-06-22T08:11:54;65691.63;;;25.54;70.53
6833;BME280;3454;42.654;23.378;2023-06-22T08:14:22;65698.47;;;25.63;72.24
6833;BME280;3454;42.654;23.378;2023-06-22T08:16:48;65701.06;;;25.63;70.74
6833;BME280;3454;42.654;23.378;2023-06-22T08:19:13;65657.19;;;25.23;75.82
6833;BME280;3454;42.654;23.378;2023-06-22T08:21:38;65664.78;;;25.35;76.88
6833;BME280;3454;42.654;23.378;2023-06-22T08:24:04;65675.84;;;25.38;73.93
6833;BME280;3454;42.654;23.378;2023-06-22T08:26:30;65696.63;;;25.59;67.94
6833;BME280;3454;42.654;23.378;2023-06-22T08:28:55;65684.19;;;25.45;68.95
6833;BME280;3454;42.654;23.378;2023-06-22T08:31:21;65680.72;;;25.47;69.47
6833;BME280;3454;42.654;23.378;2023-06-22T08:34:05;65682.38;;;25.48;72.16
6833;BME280;3454;42.654;23.378;2023-06-22T08:36:30;65692.91;;;25.58;76.04
6833;BME280;3454;42.654;23.378;2023-06-22T08:39:00;65700.34;;;25.67;74.26
6833;BME280;3454;42.654;23.378;2023-06-22T08:41:28;65703.81;;;25.65;73.89
6833;BME280;3454;42.654;23.378;2023-06-22T08:43:54;65748.25;;;26.06;74.99
6833;BME280;3454;42.654;23.378;2023-06-22T08:46:19;65743.25;;;26.01;74.96
6833;BME280;3454;42.654;23.378;2023-06-22T08:48:48;65729.94;;;25.89;77.00
6833;BME280;3454;42.654;23.378;2023-06-22T08:51:14;65732.72;;;25.92;75.97
6833;BME280;3454;42.654;23.378;2023-06-22T08:53:39;65721.59;;;25.82;72.63
6833;BME280;3454;42.654;23.378;2023-06-22T08:56:05;65738.81;;;25.97;75.90
6833;BME280;3454;42.654;23.378;2023-06-22T08:58:30;65739.00;;;26.00;72.62
6833;BME280;3454;42.654;23.378;2023-06-22T09:00:56;65764.56;;;26.23;70.60
6833;BME280;3454;42.654;23.378;2023-06-22T09:03:21;65770.50;;;26.26;66.86
6833;BME280;3454;42.654;23.378;2023-06-22T09:05:51;65782.91;;;26.39;68.59
6833;BME280;3454;42.654;23.378;2023-06-22T09:08:16;65779.00;;;26.36;67.47
6833;BME280;3454;42.654;23.378;2023-06-22T09:10:42;65797.69;;;26.50;66.04
6833;BME280;3454;42.654;23.378;2023-06-22T09:13:08;65787.16;;;26.41;69.28
6833;BME280;3454;42.654;23.378;2023-06-22T09:15:33;65804.00;;;26.58;65.59
6833;BME280;3454;42.654;23.378;2023-06-22T09:18:00;65824.22;;;26.79;64.56
6833;BME280;3454;42.654;23.378;2023-06-22T09:20:25;65824.00;;;26.77;64.94
6833;BME280;3454;42.654;23.378;2023-06-22T09:22:50;65838.47;;;26.90;61.94
6833;BME280;3454;42.654;23.378;2023-06-22T09:25:16;65857.38;;;27.07;62.35
6833;BME280;3454;42.654;23.378;2023-06-22T09:27:41;65869.03;;;27.17;62.28
6833;BME280;3454;42.654;23.378;2023-06-22T09:30:07;65886.66;;;27.31;66.60
6833;BME280;3454;42.654;23.378;2023-06-22T09:32:33;65892.41;;;27.38;65.99
6833;BME280;3454;42.654;23.378;2023-06-22T09:34:58;65911.66;;;27.54;66.22
6833;BME280;3454;42.654;23.378;2023-06-22T09:37:23;65908.91;;;27.51;62.50
6833;BME280;3454;42.654;23.378;2023-06-22T09:39:49;65900.19;;;27.46;60.36
6833;BME280;3454;42.654;23.378;2023-06-22T09:42:14;65926.50;;;27.72;61.46
6833;BME280;3454;42.654;23.378;2023-06-22T09:44:40;65935.03;;;27.75;60.75
6833;BME280;3454;42.654;23.378;2023-06-22T09:47:06;65945.22;;;27.86;61.49
6833;BME280;3454;42.654;23.378;2023-06-22T09:49:31;65949.09;;;27.90;59.58
6833;BME280;3454;42.654;23.378;2023-06-22T09:51:57;65953.78;;;27.96;61.15
6833;BME280;3454;42.654;23.378;2023-06-22T09:54:22;65965.25;;;28.04;55.63
6833;BME280;3454;42.654;23.378;2023-06-22T09:56:48;65966.75;;;28.03;56.07
6833;BME280;3454;42.654;23.378;2023-06-22T09:59:14;65952.47;;;27.93;55.19
6833;BME280;3454;42.654;23.378;2023-06-22T10:01:39;65960.81;;;28.00;54.72
6833;BME280;3454;42.654;23.378;2023-06-22T10:04:05;65956.72;;;27.94;55.40
6833;BME280;3454;42.654;23.378;2023-06-22T10:06:30;65966.75;;;28.03;55.98
6833;BME280;3454;42.654;23.378;2023-06-22T10:08:56;65960.25;;;28.00;55.94
6833;BME280;3454;42.654;23.378;2023-06-22T10:11:21;65978.97;;;28.14;55.10
6833;BME280;3454;42.654;23.378;2023-06-22T10:13:52;65977.50;;;28.15;54.26
6833;BME280;3454;42.654;23.378;2023-06-22T10:16:17;65999.00;;;28.33;52.63
6833;BME280;3454;42.654;23.378;2023-06-22T10:18:43;66004.22;;;28.40;53.60
6833;BME280;3454;42.654;23.378;2023-06-22T10:21:08;66000.31;;;28.36;52.97
6833;BME280;3454;42.654;23.378;2023-06-22T10:23:34;65990.88;;;28.28;53.66
6833;BME280;3454;42.654;23.378;2023-06-22T10:26:00;66000.88;;;28.37;52.36
6833;BME280;3454;42.654;23.378;2023-06-22T10:28:25;66044.88;;;28.76;50.79
6833;BME280;3454;42.654;23.378;2023-06-22T10:30:51;66089.97;;;29.17;52.84
6833;BME280;3454;42.654;23.378;2023-06-22T10:33:16;66093.31;;;29.20;54.44
6833;BME280;3454;42.654;23.378;2023-06-22T10:35:42;66115.78;;;29.43;53.11
6833;BME280;3454;42.654;23.378;2023-06-22T10:38:07;66130.06;;;29.53;46.39
6833;BME280;3454;42.654;23.378;2023-06-22T10:40:33;66119.47;;;29.44;47.34
6833;BME280;3454;42.654;23.378;2023-06-22T10:42:59;66115.59;;;29.40;48.55
6833;BME280;3454;42.654;23.378;2023-06-22T10:45:25;66117.06;;;29.39;49.36
6833;BME280;3454;42.654;23.378;2023-06-22T10:47:50;66161.28;;;29.81;51.07
6833;BME280;3454;42.654;23.378;2023-06-22T10:50:16;66210.31;;;30.26;50.80
6833;BME280;3454;42.654;23.378;2023-06-22T10:52:41;66226.47;;;30.40;51.45
6833;BME280;3454;42.654;23.378;2023-06-22T10:55:08;66248.78;;;30.60;47.89
6833;BME280;3454;42.654;23.378;2023-06-22T10:57:33;66283.00;;;30.94;49.42
6833;BME280;3454;42.654;23.378;2023-06-22T10:59:59;66219.25;;;30.34;46.41
6833;BME280;3454;42.654;23.378;2023-06-22T11:02:25;66239.31;;;30.52;47.06
6833;BME280;3454;42.654;23.378;2023-06-22T11:04:51;66218.88;;;30.36;47.89
6833;BME280;3454;42.654;23.378;2023-06-22T11:07:16;66261.59;;;30.72;44.18
6833;BME280;3454;42.654;23.378;2023-06-22T11:09:45;66252.84;;;30.66;46.31
6833;BME280;3454;42.654;23.378;2023-06-22T11:12:11;66222.59;;;30.37;46.06
6833;BME280;3454;42.654;23.378;2023-06-22T11:14:38;66248.41;;;30.62;45.12
6833;BME280;3454;42.654;23.378;2023-06-22T11:17:04;66300.66;;;31.07;46.12
6833;BME280;3454;42.654;23.378;2023-06-22T11:19:29;66244.31;;;30.56;45.25
6833;BME280;3454;42.654;23.378;2023-06-22T11:21:55;66264.38;;;30.75;44.31
6833;BME280;3454;42.654;23.378;2023-06-22T11:24:20;66311.78;;;31.17;44.13
6833;BME280;3454;42.654;23.378;2023-06-22T11:26:45;66364.25;;;31.65;46.59
6833;BME280;3454;42.654;23.378;2023-06-22T11:29:11;66376.16;;;31.78;43.10
6833;BME280;3454;42.654;23.378;2023-06-22T11:31:36;66395.72;;;31.95;44.46
6833;BME280;3454;42.654;23.378;2023-06-22T11:34:03;66415.63;;;32.11;44.22
6833;BME280;3454;42.654;23.378;2023-06-22T11:36:29;66442.97;;;32.36;44.31
6833;BME280;3454;42.654;23.378;2023-06-22T11:38:56;66440.91;;;32.36;44.01
6833;BME280;3454;42.654;23.378;2023-06-22T11:41:22;66452.09;;;32.46;42.36
6833;BME280;3454;42.654;23.378;2023-06-22T11:43:47;66409.66;;;32.08;42.53
6833;BME280;3454;42.654;23.378;2023-06-22T11:46:13;66397.38;;;31.97;44.88
6833;BME280;3454;42.654;23.378;2023-06-22T11:48:38;66398.47;;;31.98;43.01
6833;BME280;3454;42.654;23.378;2023-06-22T11:51:04;66434.22;;;32.30;42.43
6833;BME280;3454;42.654;23.378;2023-06-22T11:53:31;66400.19;;;31.99;41.50
6833;BME280;3454;42.654;23.378;2023-06-22T11:55:57;66385.06;;;31.86;42.97
6833;BME280;3454;42.654;23.378;2023-06-22T11:58:22;66417.84;;;32.13;42.85
6833;BME280;3454;42.654;23.378;2023-06-22T12:00:48;66423.06;;;32.20;39.92
6833;BME280;3454;42.654;23.378;2023-06-22T12:03:14;66415.78;;;32.13;41.29
6833;BME280;3454;42.654;23.378;2023-06-22T12:05:40;66401.28;;;32.00;43.86
6833;BME280;3454;42.654;23.378;2023-06-22T12:08:13;66402.03;;;31.96;44.55
6833;BME280;3454;42.654;23.378;2023-06-22T12:10:39;66368.72;;;31.69;45.73
6833;BME280;3454;42.654;23.378;2023-06-22T12:13:04;66379.88;;;31.79;44.74
6833;BME280;3454;42.654;23.378;2023-06-22T12:15:30;66339.72;;;31.42;45.42
6833;BME280;3454;42.654;23.378;2023-06-22T12:17:55;66289.88;;;30.95;47.22
6833;BME280;3454;42.654;23.378;2023-06-22T12:20:20;66224.06;;;30.36;50.65
6833;BME280;3454;42.654;23.378;2023-06-22T12:22:46;66135.06;;;29.58;51.79
6833;BME280;3454;42.654;23.378;2023-06-22T12:25:12;66099.22;;;29.23;52.57
6833;BME280;3454;42.654;23.378;2023-06-22T12:27:38;66043.75;;;28.75;54.79
6833;BME280;3454;42.654;23.378;2023-06-22T12:30:04;65997.53;;;28.34;56.21
6833;BME280;3454;42.654;23.378;2023-06-22T12:32:29;65956.16;;;27.94;58.53
6833;BME280;3454;42.654;23.378;2023-06-22T12:34:55;65917.22;;;27.59;60.29
6833;BME280;3454;42.654;23.378;2023-06-22T12:37:21;65877.75;;;27.23;61.45
6833;BME280;3454;42.654;23.378;2023-06-22T12:39:46;65855.16;;;27.05;63.25
6833;BME280;3454;42.654;23.378;2023-06-22T12:42:11;65831.59;;;26.81;64.90
6833;BME280;3454;42.654;23.378;2023-06-22T12:44:38;65795.84;;;26.46;68.60
6833;BME280;3454;42.654;23.378;2023-06-22T12:47:05;65741.03;;;25.99;74.47
6833;BME280;3454;42.654;23.378;2023-06-22T12:49:30;65679.41;;;25.43;75.81
6833;BME280;3454;42.654;23.378;2023-06-22T12:51:56;65693.28;;;25.56;77.50
6833;BME280;3454;42.654;23.378;2023-06-22T12:54:21;65686.06;;;25.49;77.77
6833;BME280;3454;42.654;23.378;2023-06-22T12:56:46;65663.31;;;25.29;82.56
6833;BME280;3454;42.654;23.378;2023-06-22T12:59:12;65640.53;;;25.08;86.23
6833;BME280;3454;42.654;23.378;2023-06-22T13:01:37;65643.13;;;25.08;88.52
6833;BME280;3454;42.654;23.378;2023-06-22T13:04:03;65626.09;;;24.95;89.02
6833;BME280;3454;42.654;23.378;2023-06-22T13:06:28;65602.59;;;24.71;88.13
6833;BME280;3454;42.654;23.378;2023-06-22T13:08:54;65593.94;;;24.66;90.26
6833;BME280;3454;42.654;23.378;2023-06-22T13:11:20;65563.41;;;24.38;93.63
6833;BME280;3454;42.654;23.378;2023-06-22T13:13:46;65576.38;;;24.52;92.75